sensor_id;sensor_type;location;lat;lon;timestamp;P1;durP1;ratioP1;P2;durP2;ratioP2
12812;SDS011;6471;50.932;6.934;2022-08-04T01:29:05;3.10;;;1.70;;
12812;SDS011;6471;50.932;6.934;2022-08-04T01:33:59;2.37;;;1.80;;
12812;SDS011;6471;50.932;6.934;2022-08-04T01:36:27;1.80;;;1.60;;
12812;SDS011;6471;50.932;6.934;2022-08-04T01:38:55;2.50;;;1.73;;
12812;SDS011;6471;50.932;6.934;2022-08-04T01:41:21;2.20;;;1.80;;
12812;SDS011;6471;50.932;6.934;2022-08-04T01:43:48;2.90;;;1.60;;
12812;SDS011;6471;50.932;6.934;2022-08-04T01:46:18;1.57;;;1.40;;
12812;SDS011;6471;50.932;6.934;2022-08-04T01:48:46;1.60;;;1.50;;
12812;SDS011;6471;50.932;6.934;2022-08-04T01:51:13;3.10;;;1.50;;
12812;SDS011;6471;50.932;6.934;2022-08-04T01:53:40;2.03;;;1.60;;
12812;SDS011;6471;50.932;6.934;2022-08-04T01:56:07;1.90;;;1.60;;
12812;SDS011;6471;50.932;6.934;2022-08-04T01:58:35;2.10;;;1.60;;
12812;SDS011;6471;50.932;6.934;2022-08-04T02:01:05;2.30;;;1.93;;
12812;SDS011;6471;50.932;6.934;2022-08-04T02:03:33;2.70;;;1.70;;
12812;SDS011;6471;50.932;6.934;2022-08-04T02:06:03;2.87;;;1.70;;
12812;SDS011;6471;50.932;6.934;2022-08-04T02:11:23;3.17;;;2.10;;
12812;SDS011;6471;50.932;6.934;2022-08-04T02:13:53;2.50;;;2.00;;
12812;SDS011;6471;50.932;6.934;2022-08-04T02:19:08;3.67;;;2.13;;
12812;SDS011;6471;50.932;6.934;2022-08-04T02:21:38;2.70;;;2.20;;
12812;SDS011;6471;50.932;6.934;2022-08-04T02:24:06;2.77;;;2.20;;
12812;SDS011;6471;50.932;6.934;2022-08-04T02:26:33;2.57;;;1.90;;
12812;SDS011;6471;50.932;6.934;2022-08-04T02:29:16;2.20;;;2.00;;
12812;SDS011;6471;50.932;6.934;2022-08-04T02:31:59;2.03;;;1.87;;
12812;SDS011;6471;50.932;6.934;2022-08-04T02:34:38;2.30;;;2.00;;
12812;SDS011;6471;50.932;6.934;2022-08-04T02:37:06;2.47;;;2.03;;
12812;SDS011;6471;50.932;6.934;2022-08-04T02:39:34;2.17;;;1.90;;
12812;SDS011;6471;50.932;6.934;2022-08-04T02:42:04;2.27;;;2.00;;
12812;SDS011;6471;50.932;6.934;2022-08-04T02:44:30;2.60;;;2.20;;
12812;SDS011;6471;50.932;6.934;2022-08-04T02:46:59;3.10;;;2.30;;
12812;SDS011;6471;50.932;6.934;2022-08-04T02:49:26;2.97;;;2.37;;
12812;SDS011;6471;50.932;6.934;2022-08-04T02:51:54;3.03;;;2.30;;
12812;SDS011;6471;50.932;6.934;2022-08-04T02:54:22;2.30;;;2.00;;
12812;SDS011;6471;50.932;6.934;2022-08-04T02:56:50;2.57;;;2.03;;
12812;SDS011;6471;50.932;6.934;2022-08-04T02:59:19;1.80;;;1.70;;
12812;SDS011;6471;50.932;6.934;2022-08-04T03:01:48;2.90;;;2.23;;
12812;SDS011;6471;50.932;6.934;2022-08-04T03:20:25;2.50;;;2.10;;
12812;SDS011;6471;50.932;6.934;2022-08-04T03:25:52;3.57;;;2.13;;
12812;SDS011;6471;50.932;6.934;2022-08-04T03:31:02;3.17;;;2.03;;
12812;SDS011;6471;50.932;6.934;2022-08-04T03:39:09;3.07;;;2.33;;
12812;SDS011;6471;50.932;6.934;2022-08-04T03:52:32;2.10;;;1.90;;
12812;SDS011;6471;50.932;6.934;2022-08-04T04:06:29;4.57;;;2.70;;
12812;SDS011;6471;50.932;6.934;2022-08-04T04:08:28;2.83;;;2.27;;
12812;SDS011;6471;50.932;6.934;2022-08-04T04:13:32;3.07;;;2.27;;
12812;SDS011;6471;50.932;6.934;2022-08-04T04:21:17;3.37;;;2.43;;
12812;SDS011;6471;50.932;6.934;2022-08-04T04:23:58;2.20;;;2.00;;
12812;SDS011;6471;50.932;6.934;2022-08-04T04:29:10;4.03;;;2.50;;
12812;SDS011;6471;50.932;6.934;2022-08-04T04:32:01;3.87;;;2.47;;
12812;SDS011;6471;50.932;6.934;2022-08-04T04:41:47;3.27;;;2.23;;
12812;SDS011;6471;50.932;6.934;2022-08-04T04:46:57;2.73;;;2.40;;
12812;SDS011;6471;50.932;6.934;2022-08-04T04:54:43;2.43;;;2.10;;
12812;SDS011;6471;50.932;6.934;2022-08-04T04:59:37;2.93;;;2.20;;
12812;SDS011;6471;50.932;6.934;2022-08-04T05:10:00;2.60;;;2.40;;
12812;SDS011;6471;50.932;6.934;2022-08-04T05:12:50;3.07;;;2.73;;
12812;SDS011;6471;50.932;6.934;2022-08-04T05:15:17;2.33;;;2.13;;
12812;SDS011;6471;50.932;6.934;2022-08-04T05:17:48;2.33;;;2.13;;
12812;SDS011;6471;50.932;6.934;2022-08-04T05:20:22;3.47;;;2.30;;
12812;SDS011;6471;50.932;6.934;2022-08-04T05:27:49;2.30;;;2.10;;
12812;SDS011;6471;50.932;6.934;2022-08-04T05:30:16;2.43;;;2.20;;
12812;SDS011;6471;50.932;6.934;2022-08-04T05:32:52;2.30;;;2.10;;
12812;SDS011;6471;50.932;6.934;2022-08-04T05:35:33;2.63;;;2.40;;
12812;SDS011;6471;50.932;6.934;2022-08-04T05:38:01;2.43;;;2.23;;
12812;SDS011;6471;50.932;6.934;2022-08-04T05:40:28;2.37;;;2.17;;
12812;SDS011;6471;50.932;6.934;2022-08-04T05:42:54;2.27;;;2.00;;
12812;SDS011;6471;50.932;6.934;2022-08-04T05:45:21;2.40;;;2.00;;
12812;SDS011;6471;50.932;6.934;2022-08-04T05:47:47;2.27;;;2.07;;
12812;SDS011;6471;50.932;6.934;2022-08-04T05:50:14;5.13;;;2.30;;
12812;SDS011;6471;50.932;6.934;2022-08-04T05:52:41;2.90;;;2.57;;
12812;SDS011;6471;50.932;6.934;2022-08-04T05:55:07;3.43;;;2.40;;
12812;SDS011;6471;50.932;6.934;2022-08-04T05:57:37;3.03;;;2.40;;
12812;SDS011;6471;50.932;6.934;2022-08-04T06:00:04;3.70;;;2.30;;
12812;SDS011;6471;50.932;6.934;2022-08-04T06:02:31;2.97;;;2.40;;
12812;SDS011;6471;50.932;6.934;2022-08-04T06:04:57;3.93;;;2.60;;
12812;SDS011;6471;50.932;6.934;2022-08-04T06:07:25;2.60;;;2.40;;
12812;SDS011;6471;50.932;6.934;2022-08-04T06:09:51;3.10;;;2.80;;
12812;SDS011;6471;50.932;6.934;2022-08-04T06:12:22;5.60;;;3.40;;
12812;SDS011;6471;50.932;6.934;2022-08-04T06:14:51;4.10;;;3.37;;
12812;SDS011;6471;50.932;6.934;2022-08-04T06:17:22;5.10;;;3.60;;
12812;SDS011;6471;50.932;6.934;2022-08-04T06:19:49;4.03;;;3.30;;
12812;SDS011;6471;50.932;6.934;2022-08-04T06:22:15;3.30;;;2.90;;
12812;SDS011;6471;50.932;6.934;2022-08-04T06:24:42;3.77;;;2.70;;
12812;SDS011;6471;50.932;6.934;2022-08-04T06:27:12;3.00;;;2.70;;
12812;SDS011;6471;50.932;6.934;2022-08-04T06:29:38;3.30;;;2.70;;
12812;SDS011;6471;50.932;6.934;2022-08-04T06:32:06;2.50;;;2.30;;
12812;SDS011;6471;50.932;6.934;2022-08-04T06:34:51;2.60;;;2.40;;
12812;SDS011;6471;50.932;6.934;2022-08-04T06:37:19;2.63;;;2.40;;
12812;SDS011;6471;50.932;6.934;2022-08-04T06:39:45;3.00;;;2.27;;
12812;SDS011;6471;50.932;6.934;2022-08-04T06:42:12;2.67;;;2.47;;
12812;SDS011;6471;50.932;6.934;2022-08-04T06:44:39;3.37;;;2.63;;
12812;SDS011;6471;50.932;6.934;2022-08-04T06:47:05;3.30;;;2.60;;
12812;SDS011;6471;50.932;6.934;2022-08-04T06:49:32;3.47;;;2.77;;
12812;SDS011;6471;50.932;6.934;2022-08-04T06:51:59;2.73;;;2.53;;
12812;SDS011;6471;50.932;6.934;2022-08-04T06:54:27;4.57;;;2.93;;
12812;SDS011;6471;50.932;6.934;2022-08-04T06:56:53;3.47;;;3.17;;
12812;SDS011;6471;50.932;6.934;2022-08-04T06:59:20;3.30;;;3.00;;
12812;SDS011;6471;50.932;6.934;2022-08-04T07:01:46;3.37;;;2.60;;
12812;SDS011;6471;50.932;6.934;2022-08-04T07:04:13;4.50;;;2.97;;
12812;SDS011;6471;50.932;6.934;2022-08-04T07:06:39;2.97;;;2.70;;
12812;SDS011;6471;50.932;6.934;2022-08-04T07:09:06;3.00;;;2.60;;
12812;SDS011;6471;50.932;6.934;2022-08-04T07:11:32;2.60;;;2.37;;
12812;SDS011;6471;50.932;6.934;2022-08-04T07:13:59;3.70;;;2.47;;
12812;SDS011;6471;50.932;6.934;2022-08-04T07:16:25;2.47;;;2.27;;
12812;SDS011;6471;50.932;6.934;2022-08-04T07:18:52;2.97;;;2.10;;
12812;SDS011;6471;50.932;6.934;2022-08-04T07:21:19;2.30;;;2.10;;
12812;SDS011;6471;50.932;6.934;2022-08-04T07:23:46;3.07;;;2.50;;
12812;SDS011;6471;50.932;6.934;2022-08-04T07:26:13;2.50;;;2.30;;
12812;SDS011;6471;50.932;6.934;2022-08-04T07:28:44;3.70;;;2.50;;
12812;SDS011;6471;50.932;6.934;2022-08-04T07:31:14;2.92;;;2.58;;
12812;SDS011;6471;50.932;6.934;2022-08-04T07:33:41;3.03;;;2.57;;
12812;SDS011;6471;50.932;6.934;2022-08-04T07:36:08;3.30;;;2.70;;
12812;SDS011;6471;50.932;6.934;2022-08-04T07:38:35;3.03;;;2.60;;
12812;SDS011;6471;50.932;6.934;2022-08-04T07:41:01;5.15;;;3.03;;
12812;SDS011;6471;50.932;6.934;2022-08-04T07:43:29;4.30;;;2.50;;
12812;SDS011;6471;50.932;6.934;2022-08-04T07:45:56;2.88;;;2.50;;
12812;SDS011;6471;50.932;6.934;2022-08-04T07:48:22;3.00;;;2.38;;
12812;SDS011;6471;50.932;6.934;2022-08-04T07:50:49;2.88;;;2.35;;
12812;SDS011;6471;50.932;6.934;2022-08-04T07:53:15;2.60;;;2.33;;
12812;SDS011;6471;50.932;6.934;2022-08-04T07:55:46;3.50;;;2.38;;
12812;SDS011;6471;50.932;6.934;2022-08-04T07:58:12;2.78;;;2.20;;
12812;SDS011;6471;50.932;6.934;2022-08-04T08:00:43;2.40;;;2.20;;
12812;SDS011;6471;50.932;6.934;2022-08-04T08:03:10;3.92;;;2.40;;
12812;SDS011;6471;50.932;6.934;2022-08-04T08:05:37;3.10;;;2.60;;
12812;SDS011;6471;50.932;6.934;2022-08-04T08:08:03;4.00;;;2.38;;
12812;SDS011;6471;50.932;6.934;2022-08-04T08:10:30;2.40;;;2.20;;
12812;SDS011;6471;50.932;6.934;2022-08-04T08:12:56;2.50;;;2.22;;
12812;SDS011;6471;50.932;6.934;2022-08-04T08:15:22;2.40;;;2.20;;
12812;SDS011;6471;50.932;6.934;2022-08-04T08:17:48;2.90;;;2.60;;
12812;SDS011;6471;50.932;6.934;2022-08-04T08:20:14;3.35;;;2.30;;
12812;SDS011;6471;50.932;6.934;2022-08-04T08:22:41;3.33;;;2.20;;
12812;SDS011;6471;50.932;6.934;2022-08-04T08:25:07;2.05;;;1.85;;
12812;SDS011;6471;50.932;6.934;2022-08-04T08:27:34;3.90;;;2.13;;
12812;SDS011;6471;50.932;6.934;2022-08-04T08:30:02;2.58;;;2.05;;
12812;SDS011;6471;50.932;6.934;2022-08-04T08:32:28;2.40;;;1.90;;
12812;SDS011;6471;50.932;6.934;2022-08-04T08:34:54;3.35;;;2.00;;
12812;SDS011;6471;50.932;6.934;2022-08-04T08:37:34;2.88;;;2.10;;
12812;SDS011;6471;50.932;6.934;2022-08-04T08:40:24;2.28;;;1.75;;
12812;SDS011;6471;50.932;6.934;2022-08-04T08:55:35;3.22;;;1.67;;
12812;SDS011;6471;50.932;6.934;2022-08-04T08:58:10;1.83;;;1.63;;
12812;SDS011;6471;50.932;6.934;2022-08-04T09:10:46;2.05;;;1.70;;
12812;SDS011;6471;50.932;6.934;2022-08-04T09:13:15;3.00;;;1.80;;
12812;SDS011;6471;50.932;6.934;2022-08-04T09:18:19;2.22;;;2.03;;
12812;SDS011;6471;50.932;6.934;2022-08-04T09:21:09;2.88;;;1.90;;
12812;SDS011;6471;50.932;6.934;2022-08-04T09:28:42;3.28;;;1.90;;
12812;SDS011;6471;50.932;6.934;2022-08-04T09:31:12;2.25;;;2.03;;
12812;SDS011;6471;50.932;6.934;2022-08-04T09:36:08;1.90;;;1.80;;
12812;SDS011;6471;50.932;6.934;2022-08-04T09:38:43;3.30;;;1.88;;
12812;SDS011;6471;50.932;6.934;2022-08-04T09:46:39;2.35;;;2.15;;
12812;SDS011;6471;50.932;6.934;2022-08-04T09:49:15;2.65;;;2.20;;
12812;SDS011;6471;50.932;6.934;2022-08-04T09:54:26;2.13;;;1.90;;
12812;SDS011;6471;50.932;6.934;2022-08-04T09:56:56;1.95;;;1.73;;
12812;SDS011;6471;50.932;6.934;2022-08-04T09:59:24;2.00;;;1.80;;
12812;SDS011;6471;50.932;6.934;2022-08-04T10:01:53;2.20;;;1.90;;
12812;SDS011;6471;50.932;6.934;2022-08-04T10:04:19;1.90;;;1.70;;
12812;SDS011;6471;50.932;6.934;2022-08-04T10:14:45;2.00;;;1.80;;
12812;SDS011;6471;50.932;6.934;2022-08-04T10:19:39;5.10;;;2.15;;
12812;SDS011;6471;50.932;6.934;2022-08-04T10:27:23;1.98;;;1.70;;
12812;SDS011;6471;50.932;6.934;2022-08-04T10:29:50;2.38;;;1.45;;
12812;SDS011;6471;50.932;6.934;2022-08-04T10:32:20;2.28;;;1.65;;
12812;SDS011;6471;50.932;6.934;2022-08-04T10:37:23;4.88;;;1.90;;
12812;SDS011;6471;50.932;6.934;2022-08-04T10:39:57;4.13;;;1.73;;
12812;SDS011;6471;50.932;6.934;2022-08-04T10:42:57;3.47;;;1.80;;
12812;SDS011;6471;50.932;6.934;2022-08-04T10:45:32;3.13;;;1.90;;
12812;SDS011;6471;50.932;6.934;2022-08-04T10:48:46;4.13;;;1.70;;
12812;SDS011;6471;50.932;6.934;2022-08-04T10:50:52;3.60;;;1.70;;
12812;SDS011;6471;50.932;6.934;2022-08-04T10:53:19;2.95;;;1.73;;
12812;SDS011;6471;50.932;6.934;2022-08-04T10:55:48;1.73;;;1.50;;
12812;SDS011;6471;50.932;6.934;2022-08-04T10:58:17;2.50;;;1.73;;
12812;SDS011;6471;50.932;6.934;2022-08-04T11:00:45;1.75;;;1.50;;
12812;SDS011;6471;50.932;6.934;2022-08-04T11:03:25;3.50;;;1.80;;
12812;SDS011;6471;50.932;6.934;2022-08-04T11:05:56;4.70;;;1.80;;
12812;SDS011;6471;50.932;6.934;2022-08-04T11:08:41;1.85;;;1.55;;
12812;SDS011;6471;50.932;6.934;2022-08-04T11:11:24;2.38;;;1.92;;
12812;SDS011;6471;50.932;6.934;2022-08-04T11:14:05;5.60;;;2.20;;
12812;SDS011;6471;50.932;6.934;2022-08-04T11:21:44;3.78;;;1.75;;
12812;SDS011;6471;50.932;6.934;2022-08-04T11:24:18;8.88;;;2.25;;
12812;SDS011;6471;50.932;6.934;2022-08-04T11:27:08;4.43;;;2.20;;
12812;SDS011;6471;50.932;6.934;2022-08-04T11:29:50;5.75;;;2.40;;
12812;SDS011;6471;50.932;6.934;2022-08-04T11:32:30;6.80;;;1.90;;
12812;SDS011;6471;50.932;6.934;2022-08-04T11:35:01;7.20;;;2.10;;
12812;SDS011;6471;50.932;6.934;2022-08-04T11:37:40;5.88;;;2.13;;
12812;SDS011;6471;50.932;6.934;2022-08-04T11:40:12;6.07;;;2.10;;
12812;SDS011;6471;50.932;6.934;2022-08-04T11:42:42;3.70;;;2.08;;
12812;SDS011;6471;50.932;6.934;2022-08-04T11:45:16;5.50;;;2.33;;
12812;SDS011;6471;50.932;6.934;2022-08-04T11:47:48;7.70;;;2.40;;
12812;SDS011;6471;50.932;6.934;2022-08-04T11:52:54;5.93;;;1.95;;
12812;SDS011;6471;50.932;6.934;2022-08-04T11:55:22;3.85;;;2.40;;
12812;SDS011;6471;50.932;6.934;2022-08-04T11:57:51;2.63;;;2.00;;
12812;SDS011;6471;50.932;6.934;2022-08-04T12:00:17;5.25;;;2.17;;
12812;SDS011;6471;50.932;6.934;2022-08-04T12:05:11;3.10;;;1.90;;
12812;SDS011;6471;50.932;6.934;2022-08-04T12:13:04;3.22;;;2.08;;
12812;SDS011;6471;50.932;6.934;2022-08-04T12:15:34;4.07;;;1.98;;
12812;SDS011;6471;50.932;6.934;2022-08-04T12:20:49;5.65;;;2.10;;
12812;SDS011;6471;50.932;6.934;2022-08-04T12:23:22;3.63;;;2.05;;
12812;SDS011;6471;50.932;6.934;2022-08-04T12:25:49;7.18;;;2.40;;
12812;SDS011;6471;50.932;6.934;2022-08-04T12:28:20;3.70;;;2.15;;
12812;SDS011;6471;50.932;6.934;2022-08-04T12:30:50;9.57;;;2.38;;
12812;SDS011;6471;50.932;6.934;2022-08-04T12:33:19;5.68;;;1.92;;
12812;SDS011;6471;50.932;6.934;2022-08-04T12:38:32;5.70;;;2.75;;
12812;SDS011;6471;50.932;6.934;2022-08-04T12:40:59;6.43;;;2.42;;
12812;SDS011;6471;50.932;6.934;2022-08-04T12:43:41;4.82;;;2.20;;
12812;SDS011;6471;50.932;6.934;2022-08-04T12:46:08;5.47;;;2.53;;
12812;SDS011;6471;50.932;6.934;2022-08-04T12:48:35;5.68;;;2.20;;
12812;SDS011;6471;50.932;6.934;2022-08-04T12:51:02;4.30;;;2.25;;
12812;SDS011;6471;50.932;6.934;2022-08-04T12:53:31;4.45;;;2.40;;
12812;SDS011;6471;50.932;6.934;2022-08-04T12:55:58;9.77;;;2.72;;
12812;SDS011;6471;50.932;6.934;2022-08-04T12:58:26;4.35;;;2.45;;
12812;SDS011;6471;50.932;6.934;2022-08-04T13:01:00;5.60;;;2.63;;
12812;SDS011;6471;50.932;6.934;2022-08-04T13:03:28;4.88;;;2.40;;
12812;SDS011;6471;50.932;6.934;2022-08-04T13:05:54;5.07;;;2.45;;
12812;SDS011;6471;50.932;6.934;2022-08-04T13:08:21;7.30;;;2.50;;
12812;SDS011;6471;50.932;6.934;2022-08-04T13:10:48;5.55;;;2.25;;
12812;SDS011;6471;50.932;6.934;2022-08-04T13:13:16;3.90;;;2.03;;
12812;SDS011;6471;50.932;6.934;2022-08-04T13:15:42;5.57;;;2.10;;
12812;SDS011;6471;50.932;6.934;2022-08-04T13:18:19;3.70;;;2.10;;
12812;SDS011;6471;50.932;6.934;2022-08-04T13:20:46;4.15;;;2.38;;
12812;SDS011;6471;50.932;6.934;2022-08-04T13:23:14;4.55;;;1.98;;
12812;SDS011;6471;50.932;6.934;2022-08-04T13:25:47;2.45;;;2.00;;
12812;SDS011;6471;50.932;6.934;2022-08-04T13:28:20;3.30;;;2.20;;
12812;SDS011;6471;50.932;6.934;2022-08-04T13:30:48;6.20;;;2.25;;
12812;SDS011;6471;50.932;6.934;2022-08-04T13:52:25;4.57;;;1.95;;
12812;SDS011;6471;50.932;6.934;2022-08-04T13:58:23;4.28;;;2.22;;
12812;SDS011;6471;50.932;6.934;2022-08-04T14:01:09;2.83;;;2.00;;
12812;SDS011;6471;50.932;6.934;2022-08-04T14:09:32;6.30;;;2.30;;
12812;SDS011;6471;50.932;6.934;2022-08-04T14:14:28;3.20;;;2.08;;
12812;SDS011;6471;50.932;6.934;2022-08-04T14:19:20;5.22;;;2.22;;
12812;SDS011;6471;50.932;6.934;2022-08-04T14:21:46;6.90;;;2.30;;
12812;SDS011;6471;50.932;6.934;2022-08-04T14:24:21;5.05;;;2.13;;
12812;SDS011;6471;50.932;6.934;2022-08-04T14:26:48;3.03;;;2.20;;
12812;SDS011;6471;50.932;6.934;2022-08-04T14:29:14;3.60;;;2.42;;
12812;SDS011;6471;50.932;6.934;2022-08-04T14:31:41;5.05;;;2.58;;
12812;SDS011;6471;50.932;6.934;2022-08-04T14:34:07;2.78;;;2.33;;
12812;SDS011;6471;50.932;6.934;2022-08-04T14:36:38;7.85;;;2.53;;
12812;SDS011;6471;50.932;6.934;2022-08-04T14:39:05;4.68;;;2.60;;
12812;SDS011;6471;50.932;6.934;2022-08-04T14:41:42;6.05;;;2.40;;
12812;SDS011;6471;50.932;6.934;2022-08-04T14:44:08;7.47;;;2.47;;
12812;SDS011;6471;50.932;6.934;2022-08-04T14:46:34;3.33;;;2.00;;
12812;SDS011;6471;50.932;6.934;2022-08-04T14:49:14;4.50;;;2.50;;
12812;SDS011;6471;50.932;6.934;2022-08-04T14:51:41;3.53;;;2.30;;
12812;SDS011;6471;50.932;6.934;2022-08-04T14:54:09;3.85;;;2.20;;
12812;SDS011;6471;50.932;6.934;2022-08-04T14:56:35;4.45;;;2.55;;
12812;SDS011;6471;50.932;6.934;2022-08-04T14:59:04;5.78;;;2.25;;
12812;SDS011;6471;50.932;6.934;2022-08-04T15:01:31;5.47;;;2.20;;
12812;SDS011;6471;50.932;6.934;2022-08-04T15:03:59;3.55;;;2.50;;
12812;SDS011;6471;50.932;6.934;2022-08-04T15:06:26;5.20;;;2.28;;
12812;SDS011;6471;50.932;6.934;2022-08-04T15:08:53;3.30;;;2.10;;
12812;SDS011;6471;50.932;6.934;2022-08-04T15:11:20;3.15;;;2.30;;
12812;SDS011;6471;50.932;6.934;2022-08-04T15:13:46;5.93;;;2.58;;
12812;SDS011;6471;50.932;6.934;2022-08-04T15:16:13;2.97;;;2.00;;
12812;SDS011;6471;50.932;6.934;2022-08-04T15:18:39;2.55;;;2.00;;
12812;SDS011;6471;50.932;6.934;2022-08-04T15:21:06;2.40;;;2.10;;
12812;SDS011;6471;50.932;6.934;2022-08-04T15:23:33;3.78;;;2.25;;
12812;SDS011;6471;50.932;6.934;2022-08-04T15:26:00;4.03;;;2.33;;
12812;SDS011;6471;50.932;6.934;2022-08-04T15:28:27;5.93;;;2.40;;
12812;SDS011;6471;50.932;6.934;2022-08-04T15:30:54;5.70;;;2.53;;
12812;SDS011;6471;50.932;6.934;2022-08-04T15:33:20;6.53;;;2.33;;
12812;SDS011;6471;50.932;6.934;2022-08-04T15:35:49;3.45;;;2.08;;
12812;SDS011;6471;50.932;6.934;2022-08-04T15:38:27;3.88;;;2.35;;
12812;SDS011;6471;50.932;6.934;2022-08-04T15:40:56;3.78;;;2.50;;
12812;SDS011;6471;50.932;6.934;2022-08-04T15:46:09;2.95;;;2.47;;
12812;SDS011;6471;50.932;6.934;2022-08-04T15:48:36;3.78;;;2.50;;
12812;SDS011;6471;50.932;6.934;2022-08-04T15:51:07;4.97;;;2.15;;
12812;SDS011;6471;50.932;6.934;2022-08-04T15:58:51;3.30;;;2.60;;
12812;SDS011;6471;50.932;6.934;2022-08-04T16:01:18;3.65;;;2.60;;
12812;SDS011;6471;50.932;6.934;2022-08-04T16:16:32;5.32;;;2.92;;
12812;SDS011;6471;50.932;6.934;2022-08-04T16:21:52;8.90;;;2.78;;
12812;SDS011;6471;50.932;6.934;2022-08-04T16:27:04;6.13;;;2.97;;
12812;SDS011;6471;50.932;6.934;2022-08-04T16:29:43;7.70;;;3.38;;
12812;SDS011;6471;50.932;6.934;2022-08-04T16:32:12;5.30;;;2.78;;
12812;SDS011;6471;50.932;6.934;2022-08-04T16:37:15;5.72;;;2.55;;
12812;SDS011;6471;50.932;6.934;2022-08-04T16:39:42;4.68;;;2.67;;
12812;SDS011;6471;50.932;6.934;2022-08-04T16:42:29;3.88;;;2.78;;
12812;SDS011;6471;50.932;6.934;2022-08-04T16:45:09;4.80;;;2.97;;
12812;SDS011;6471;50.932;6.934;2022-08-04T16:50:18;4.32;;;2.78;;
12812;SDS011;6471;50.932;6.934;2022-08-04T16:52:45;2.65;;;2.22;;
12812;SDS011;6471;50.932;6.934;2022-08-04T16:55:22;4.45;;;2.58;;
12812;SDS011;6471;50.932;6.934;2022-08-04T16:57:48;3.67;;;2.55;;
12812;SDS011;6471;50.932;6.934;2022-08-04T17:00:15;2.60;;;2.40;;
12812;SDS011;6471;50.932;6.934;2022-08-04T17:02:42;3.78;;;2.65;;
12812;SDS011;6471;50.932;6.934;2022-08-04T17:05:21;3.67;;;2.40;;
12812;SDS011;6471;50.932;6.934;2022-08-04T17:07:48;5.38;;;2.70;;
12812;SDS011;6471;50.932;6.934;2022-08-04T17:10:14;4.60;;;2.72;;
12812;SDS011;6471;50.932;6.934;2022-08-04T17:12:40;3.55;;;2.58;;
12812;SDS011;6471;50.932;6.934;2022-08-04T17:15:21;3.17;;;2.35;;
12812;SDS011;6471;50.932;6.934;2022-08-04T17:17:48;4.38;;;2.40;;
12812;SDS011;6471;50.932;6.934;2022-08-04T17:20:14;4.68;;;2.92;;
12812;SDS011;6471;50.932;6.934;2022-08-04T17:22:41;4.90;;;2.47;;
12812;SDS011;6471;50.932;6.934;2022-08-04T17:25:07;3.25;;;2.30;;
12812;SDS011;6471;50.932;6.934;2022-08-04T17:27:33;4.22;;;2.40;;
12812;SDS011;6471;50.932;6.934;2022-08-04T17:30:01;6.80;;;3.03;;
12812;SDS011;6471;50.932;6.934;2022-08-04T17:32:28;5.20;;;2.90;;
12812;SDS011;6471;50.932;6.934;2022-08-04T17:34:54;3.20;;;2.55;;
12812;SDS011;6471;50.932;6.934;2022-08-04T17:37:21;4.72;;;2.35;;
12812;SDS011;6471;50.932;6.934;2022-08-04T17:39:51;5.32;;;2.70;;
12812;SDS011;6471;50.932;6.934;2022-08-04T17:42:27;5.28;;;2.90;;
12812;SDS011;6471;50.932;6.934;2022-08-04T17:45:05;3.38;;;2.20;;
12812;SDS011;6471;50.932;6.934;2022-08-04T17:47:32;3.25;;;2.33;;
12812;SDS011;6471;50.932;6.934;2022-08-04T17:50:07;3.10;;;2.13;;
12812;SDS011;6471;50.932;6.934;2022-08-04T17:52:34;3.38;;;2.03;;
12812;SDS011;6471;50.932;6.934;2022-08-04T17:55:00;4.95;;;2.33;;
12812;SDS011;6471;50.932;6.934;2022-08-04T17:57:27;4.10;;;2.72;;
12812;SDS011;6471;50.932;6.934;2022-08-04T17:59:54;6.53;;;2.67;;
12812;SDS011;6471;50.932;6.934;2022-08-04T18:02:30;3.15;;;2.40;;
12812;SDS011;6471;50.932;6.934;2022-08-04T18:04:56;3.42;;;2.35;;
12812;SDS011;6471;50.932;6.934;2022-08-04T18:07:23;2.95;;;2.45;;
12812;SDS011;6471;50.932;6.934;2022-08-04T18:09:58;3.15;;;2.22;;
12812;SDS011;6471;50.932;6.934;2022-08-04T18:14:52;4.32;;;2.40;;
12812;SDS011;6471;50.932;6.934;2022-08-04T18:17:37;3.80;;;2.30;;
12812;SDS011;6471;50.932;6.934;2022-08-04T18:20:07;5.97;;;2.80;;
12812;SDS011;6471;50.932;6.934;2022-08-04T18:22:34;3.33;;;2.80;;
12812;SDS011;6471;50.932;6.934;2022-08-04T18:25:00;5.40;;;3.08;;
12812;SDS011;6471;50.932;6.934;2022-08-04T18:27:27;6.97;;;3.20;;
12812;SDS011;6471;50.932;6.934;2022-08-04T18:29:53;4.20;;;2.85;;
12812;SDS011;6471;50.932;6.934;2022-08-04T18:32:20;5.25;;;2.90;;
12812;SDS011;6471;50.932;6.934;2022-08-04T18:34:48;6.07;;;2.80;;
12812;SDS011;6471;50.932;6.934;2022-08-04T18:37:14;4.28;;;3.00;;
12812;SDS011;6471;50.932;6.934;2022-08-04T18:39:40;7.93;;;3.65;;
12812;SDS011;6471;50.932;6.934;2022-08-04T18:42:06;8.15;;;3.88;;
12812;SDS011;6471;50.932;6.934;2022-08-04T18:44:32;6.38;;;3.65;;
12812;SDS011;6471;50.932;6.934;2022-08-04T18:46:59;11.65;;;4.43;;
12812;SDS011;6471;50.932;6.934;2022-08-04T18:49:26;4.65;;;3.38;;
12812;SDS011;6471;50.932;6.934;2022-08-04T18:51:52;6.57;;;3.40;;
12812;SDS011;6471;50.932;6.934;2022-08-04T18:54:19;6.78;;;3.20;;
12812;SDS011;6471;50.932;6.934;2022-08-04T18:56:45;6.43;;;3.13;;
12812;SDS011;6471;50.932;6.934;2022-08-04T18:59:11;4.80;;;3.38;;
12812;SDS011;6471;50.932;6.934;2022-08-04T19:01:38;5.57;;;3.38;;
12812;SDS011;6471;50.932;6.934;2022-08-04T19:04:04;8.20;;;3.00;;
12812;SDS011;6471;50.932;6.934;2022-08-04T19:06:31;7.00;;;3.10;;
12812;SDS011;6471;50.932;6.934;2022-08-04T19:08:57;5.93;;;2.75;;
12812;SDS011;6471;50.932;6.934;2022-08-04T19:11:23;9.10;;;3.35;;
12812;SDS011;6471;50.932;6.934;2022-08-04T19:13:50;6.43;;;3.00;;
12812;SDS011;6471;50.932;6.934;2022-08-04T19:16:16;12.27;;;3.20;;
12812;SDS011;6471;50.932;6.934;2022-08-04T19:18:42;5.70;;;2.88;;
12812;SDS011;6471;50.932;6.934;2022-08-04T19:21:08;6.53;;;2.90;;
12812;SDS011;6471;50.932;6.934;2022-08-04T19:23:34;6.80;;;3.35;;
12812;SDS011;6471;50.932;6.934;2022-08-04T19:26:00;7.53;;;3.20;;
12812;SDS011;6471;50.932;6.934;2022-08-04T19:28:27;6.95;;;3.03;;
12812;SDS011;6471;50.932;6.934;2022-08-04T19:30:53;4.60;;;3.13;;
12812;SDS011;6471;50.932;6.934;2022-08-04T19:33:20;6.95;;;3.10;;
12812;SDS011;6471;50.932;6.934;2022-08-04T19:35:46;4.68;;;2.85;;
12812;SDS011;6471;50.932;6.934;2022-08-04T19:38:12;5.75;;;2.70;;
12812;SDS011;6471;50.932;6.934;2022-08-04T19:40:39;4.05;;;2.85;;
12812;SDS011;6471;50.932;6.934;2022-08-04T19:43:06;7.00;;;2.95;;
12812;SDS011;6471;50.932;6.934;2022-08-04T19:45:32;6.07;;;2.90;;
12812;SDS011;6471;50.932;6.934;2022-08-04T19:47:58;6.40;;;2.83;;
12812;SDS011;6471;50.932;6.934;2022-08-04T19:50:24;4.47;;;2.88;;
12812;SDS011;6471;50.932;6.934;2022-08-04T19:52:51;4.95;;;2.85;;
12812;SDS011;6471;50.932;6.934;2022-08-04T19:55:21;5.55;;;2.72;;
12812;SDS011;6471;50.932;6.934;2022-08-04T19:57:47;5.00;;;2.80;;
12812;SDS011;6471;50.932;6.934;2022-08-04T20:00:13;6.30;;;2.53;;
12812;SDS011;6471;50.932;6.934;2022-08-04T20:02:42;4.78;;;2.58;;
12812;SDS011;6471;50.932;6.934;2022-08-04T20:05:08;7.50;;;2.80;;
12812;SDS011;6471;50.932;6.934;2022-08-04T20:07:35;5.90;;;2.60;;
12812;SDS011;6471;50.932;6.934;2022-08-04T20:10:02;4.25;;;3.08;;
12812;SDS011;6471;50.932;6.934;2022-08-04T20:12:28;5.30;;;3.13;;
12812;SDS011;6471;50.932;6.934;2022-08-04T20:14:54;5.75;;;3.28;;
12812;SDS011;6471;50.932;6.934;2022-08-04T20:17:20;5.53;;;2.80;;
12812;SDS011;6471;50.932;6.934;2022-08-04T20:19:47;4.82;;;2.75;;
12812;SDS011;6471;50.932;6.934;2022-08-04T20:22:13;4.93;;;3.10;;
12812;SDS011;6471;50.932;6.934;2022-08-04T20:24:41;5.15;;;2.88;;
12812;SDS011;6471;50.932;6.934;2022-08-04T20:27:07;3.70;;;2.67;;
12812;SDS011;6471;50.932;6.934;2022-08-04T20:29:33;6.03;;;3.07;;
12812;SDS011;6471;50.932;6.934;2022-08-04T20:31:59;5.33;;;2.80;;
12812;SDS011;6471;50.932;6.934;2022-08-04T20:34:25;4.27;;;2.77;;
12812;SDS011;6471;50.932;6.934;2022-08-04T20:36:51;4.55;;;3.00;;
12812;SDS011;6471;50.932;6.934;2022-08-04T20:39:17;4.82;;;2.70;;
12812;SDS011;6471;50.932;6.934;2022-08-04T20:41:43;4.65;;;2.80;;
12812;SDS011;6471;50.932;6.934;2022-08-04T20:44:09;4.25;;;2.70;;
12812;SDS011;6471;50.932;6.934;2022-08-04T20:46:36;4.70;;;2.80;;